createdAt,value
2022-07-27T00:04:29.340Z,98949.06
2022-07-27T00:09:33.190Z,98944.19
2022-07-27T00:14:37.181Z,98942.91
2022-07-27T00:19:41.051Z,98940.30
2022-07-27T00:24:45.234Z,98940.85
2022-07-27T00:29:49.827Z,98938.52
2022-07-27T00:34:53.688Z,98945.23
2022-07-27T00:39:57.309Z,98943.63
2022-07-27T00:45:01.708Z,98945.38
2022-07-27T00:50:07.730Z,98950.38
2022-07-27T00:59:11.878Z,98945.02
2022-07-27T01:04:20.413Z,98944.13
2022-07-27T01:09:46.486Z,98946.37
2022-07-27T01:14:54.864Z,98950.84
2022-07-27T01:20:02.123Z,98953.73
2022-07-27T01:25:10.807Z,98960.31
2022-07-27T01:30:30.637Z,98955.68
2022-07-27T01:35:38.417Z,98955.65
2022-07-27T01:40:45.668Z,98955.56
2022-07-27T01:45:53.305Z,98950.23
2022-07-27T01:51:01.212Z,98950.67
2022-07-27T01:59:17.650Z,98950.35
2022-07-27T02:04:25.357Z,98948.69
2022-07-27T02:13:27.848Z,98945.40
2022-07-27T02:18:36.332Z,98942.77
2022-07-27T02:23:42.522Z,98945.52
2022-07-27T02:28:46.234Z,98945.20
2022-07-27T02:33:49.832Z,98948.08
2022-07-27T02:38:53.850Z,98956.13
2022-07-27T02:43:57.844Z,98957.03
2022-07-27T02:49:01.550Z,98962.82
2022-07-27T02:54:05.427Z,98968.45
2022-07-27T02:59:09.287Z,98977.86
2022-07-27T03:04:13.979Z,98972.75
2022-07-27T03:09:18.703Z,98976.84
2022-07-27T03:14:22.634Z,98992.77
2022-07-27T03:19:30.165Z,98990.18
2022-07-27T03:24:34.703Z,98994.50
2022-07-27T03:29:38.762Z,99001.38
2022-07-27T03:34:42.644Z,99006.95
2022-07-27T03:39:46.400Z,99011.88
2022-07-27T03:44:51.906Z,99002.21
2022-07-27T03:49:55.555Z,99007.48
2022-07-27T03:54:59.785Z,99004.32
2022-07-27T04:00:04.419Z,98996.74
2022-07-27T04:05:09.611Z,99006.88
2022-07-27T04:10:14.012Z,99010.65
2022-07-27T04:15:18.555Z,99020.84
2022-07-27T04:20:22.631Z,99024.13
2022-07-27T04:25:26.350Z,99022.02
2022-07-27T04:30:30.164Z,99020.77
2022-07-27T04:35:34.481Z,99019.43
2022-07-27T04:40:38.177Z,99018.89
2022-07-27T04:45:42.127Z,99022.48
2022-07-27T04:50:47.205Z,99022.19
2022-07-27T04:55:51.016Z,99025.63
2022-07-27T05:00:54.824Z,99029.33
2022-07-27T05:05:58.782Z,99031.69
2022-07-27T05:11:03.170Z,99042.63
2022-07-27T05:16:08.686Z,99038.70
2022-07-27T05:21:12.683Z,99040.64
2022-07-27T05:26:16.347Z,99033.40
2022-07-27T05:31:20.253Z,99044.08
2022-07-27T05:36:24.156Z,99044.55
2022-07-27T05:41:28.735Z,99049.28
2022-07-27T05:46:33.266Z,99057.59
2022-07-27T05:51:38.070Z,99059.02
2022-07-27T05:56:41.731Z,99059.05
2022-07-27T06:01:45.765Z,99063.98
2022-07-27T06:07:07.588Z,99071.70
2022-07-27T06:12:12.144Z,99067.75
2022-07-27T06:17:16.544Z,99077.73
2022-07-27T06:22:20.355Z,99082.06
2022-07-27T06:27:27.239Z,99084.95
2022-07-27T06:32:33.954Z,99085.78
2022-07-27T06:37:43.532Z,99089.20
2022-07-27T06:42:47.263Z,99085.94
2022-07-27T06:47:51.551Z,99077.29
2022-07-27T06:52:55.681Z,99076.56
2022-07-27T06:57:59.853Z,99080.59
2022-07-27T07:03:06.271Z,99083.35
2022-07-27T07:08:11.568Z,99087.58
2022-07-27T07:13:15.531Z,99097.54
2022-07-27T07:18:19.495Z,99107.10
2022-07-27T07:23:25.553Z,99110.27
2022-07-27T07:28:29.323Z,99106.14
2022-07-27T07:33:33.729Z,99098.67
2022-07-27T07:38:37.699Z,99098.34
2022-07-27T07:43:42.145Z,99100.66
2022-07-27T07:48:46.186Z,99110.22
2022-07-27T07:53:50.062Z,99117.80
2022-07-27T07:58:54.067Z,99130.42
2022-07-27T08:03:57.802Z,99140.15
2022-07-27T08:09:01.584Z,99141.61
2022-07-27T08:14:05.715Z,99139.69
2022-07-27T08:19:10.361Z,99133.06
2022-07-27T08:24:14.487Z,99126.72
2022-07-27T08:29:18.452Z,99133.11
2022-07-27T08:34:27.162Z,99137.88
2022-07-27T08:40:36.506Z,99132.85
2022-07-27T08:44:55.300Z,99130.10
2022-07-27T08:49:59.790Z,99124.55
2022-07-27T08:55:04.661Z,99117.36
2022-07-27T09:00:12.065Z,99119.77
2022-07-27T09:05:16.649Z,99114.58
2022-07-27T09:10:33.980Z,99118.14
2022-07-27T09:16:15.811Z,99118.07
2022-07-27T09:21:11.949Z,99121.13
2022-07-27T09:26:30.974Z,99121.54
2022-07-27T09:31:43.049Z,99111.32
2022-07-27T09:36:54.995Z,99101.40
2022-07-27T09:42:00.967Z,99104.81
2022-07-27T09:47:22.654Z,99095.73
2022-07-27T09:52:28.673Z,99087.77
2022-07-27T09:57:50.354Z,99085.67
2022-07-27T10:02:55.064Z,99086.05
2022-07-27T10:07:58.876Z,99082.56
2022-07-27T10:13:02.656Z,99077.73
2022-07-27T10:18:12.372Z,99079.63
2022-07-27T10:23:27.398Z,99079.48
2022-07-27T10:28:31.092Z,99088.98
2022-07-27T10:33:45.176Z,99088.59
2022-07-27T10:38:51.299Z,99086.06
2022-07-27T10:44:28.871Z,99087.15
2022-07-27T10:49:34.197Z,99089.92
2022-07-27T10:54:46.842Z,99091.13
2022-07-27T11:00:08.550Z,99093.92
2022-07-27T11:10:44.645Z,99085.48
2022-07-27T11:15:55.943Z,99081.21
2022-07-27T11:21:25.518Z,99076.47
2022-07-27T11:26:36.553Z,99072.05
2022-07-27T11:31:58.282Z,99060.20
2022-07-27T11:37:04.307Z,99055.66
2022-07-27T11:42:12.310Z,99050.85
2022-07-27T11:47:19.267Z,99044.23
2022-07-27T11:52:24.747Z,99038.77
2022-07-27T11:57:33.518Z,99037.04
2022-07-27T12:02:37.157Z,99042.45
2022-07-27T12:07:42.457Z,99034.02
2022-07-27T12:12:49.641Z,99034.05
2022-07-27T12:17:57.074Z,99035.80
2022-07-27T12:23:06.136Z,99032.97
2022-07-27T12:28:13.066Z,99029.70
2022-07-27T12:33:28.139Z,99037.67
2022-07-27T12:38:39.295Z,99036.58
2022-07-27T12:43:43.103Z,99034.08
2022-07-27T12:48:46.834Z,99026.06
2022-07-27T12:53:50.941Z,99024.27
2022-07-27T12:59:01.929Z,99020.61
2022-07-27T13:04:06.130Z,99029.20
2022-07-27T13:09:10.948Z,99027.94
2022-07-27T13:14:14.901Z,99026.30
2022-07-27T13:19:18.872Z,99025.67
2022-07-27T13:24:23.134Z,99026.64
2022-07-27T13:29:27.323Z,99023.10
2022-07-27T13:34:31.211Z,99016.42
2022-07-27T13:39:35.353Z,99015.08
2022-07-27T13:50:03.118Z,99015.05
2022-07-27T13:55:09.475Z,99015.69
2022-07-27T14:00:13.386Z,99011.48
2022-07-27T14:05:20.133Z,99006.38
2022-07-27T14:10:41.331Z,99005.02
2022-07-27T14:15:53.417Z,99002.50
2022-07-27T14:21:01.279Z,99002.10
2022-07-27T14:26:07.261Z,98994.64
2022-07-27T14:31:12.704Z,98998.60
2022-07-27T14:36:16.594Z,98994.73
2022-07-27T14:41:20.197Z,98988.96
2022-07-27T14:46:24.366Z,98994.09
2022-07-27T14:51:28.499Z,98993.06
2022-07-27T14:56:32.775Z,98989.65
2022-07-27T15:01:37.264Z,98993.31
2022-07-27T15:06:41.086Z,98996.40
2022-07-27T15:11:45.028Z,98991.77
2022-07-27T15:16:50.492Z,98989.05
2022-07-27T15:21:54.756Z,98980.27
2022-07-27T15:26:58.353Z,98976.30
2022-07-27T15:32:02.059Z,98974.61
2022-07-27T15:37:07.212Z,98972.59
2022-07-27T15:42:10.823Z,98967.52
2022-07-27T15:47:14.481Z,98966.14
2022-07-27T15:52:18.561Z,98963.33
2022-07-27T15:57:22.610Z,98962.08
2022-07-27T16:02:27.629Z,98962.24
2022-07-27T16:07:40.753Z,98962.22
2022-07-27T16:12:45.723Z,98952.77
2022-07-27T16:17:49.657Z,98954.81
2022-07-27T16:22:53.445Z,98953.06
2022-07-27T16:27:57.115Z,98952.08
2022-07-27T16:33:03.019Z,98948.05
2022-07-27T16:38:06.930Z,98941.83
2022-07-27T16:43:10.870Z,98942.79
2022-07-27T16:48:14.603Z,98942.18
2022-07-27T16:53:18.395Z,98946.59
2022-07-27T16:58:22.007Z,98944.98
2022-07-27T17:03:25.921Z,98950.25
2022-07-27T17:08:29.970Z,98951.99
2022-07-27T17:13:34.667Z,98947.11
2022-07-27T17:18:40.475Z,98949.58
2022-07-27T17:23:44.752Z,98957.30
2022-07-27T17:28:48.611Z,98960.48
2022-07-27T17:33:52.648Z,98959.55
2022-07-27T17:38:57.658Z,98962.33
2022-07-27T17:44:01.836Z,98962.92
2022-07-27T17:49:06.591Z,98960.15
2022-07-27T17:54:10.298Z,98968.16
2022-07-27T17:59:36.672Z,98986.09
2022-07-27T18:04:39.595Z,98992.89
2022-07-27T18:09:43.562Z,98992.04
2022-07-27T18:15:02.069Z,98995.64
2022-07-27T18:20:09.995Z,98999.95
2022-07-27T18:25:14.183Z,99007.95
2022-07-27T18:30:18.333Z,99020.27
2022-07-27T18:35:21.931Z,99028.34
2022-07-27T18:40:25.900Z,99029.65
2022-07-27T18:45:34.591Z,99039.35
2022-07-27T18:50:39.820Z,99048.65
2022-07-27T18:55:44.364Z,99053.01
2022-07-27T19:00:48.004Z,99060.59
2022-07-27T19:05:52.957Z,99062.42
2022-07-27T19:10:56.888Z,99061.17
2022-07-27T19:16:00.562Z,99061.91
2022-07-27T19:21:04.892Z,99062.81
2022-07-27T19:26:09.913Z,99069.58
2022-07-27T19:31:23.036Z,99071.45
2022-07-27T19:36:27.350Z,99075.56
2022-07-27T19:41:32.040Z,99080.92
2022-07-27T19:46:36.173Z,99086.77
2022-07-27T19:51:39.829Z,99089.27
2022-07-27T19:56:43.741Z,99096.66
2022-07-27T20:01:47.660Z,99100.98
2022-07-27T20:06:51.633Z,99108.42
2022-07-27T20:12:00.078Z,99117.28
2022-07-27T20:17:06.425Z,99130.34
2022-07-27T20:22:10.369Z,99133.39
2022-07-27T20:27:14.054Z,99135.16
2022-07-27T20:32:17.757Z,99134.84
2022-07-27T20:37:21.316Z,99142.57
2022-07-27T20:42:25.475Z,99143.31
2022-07-27T20:47:34.379Z,99149.07
2022-07-27T20:52:39.081Z,99156.92
2022-07-27T20:57:42.617Z,99158.83
2022-07-27T21:02:48.305Z,99161.02
2022-07-27T21:07:52.298Z,99165.14
2022-07-27T21:12:56.669Z,99169.59
2022-07-27T21:18:00.525Z,99169.23
2022-07-27T21:23:22.740Z,99166.59
2022-07-27T21:28:26.422Z,99166.89
2022-07-27T21:33:33.746Z,99168.16
2022-07-27T21:38:39.818Z,99175.48
2022-07-27T21:43:44.979Z,99178.80
2022-07-27T21:48:48.640Z,99181.77
2022-07-27T21:53:52.481Z,99184.79
2022-07-27T21:58:56.434Z,99190.19
2022-07-27T22:04:00.245Z,99199.02
2022-07-27T22:09:04.318Z,99201.20
2022-07-27T22:14:08.154Z,99208.39
2022-07-27T22:19:12.001Z,99214.67
2022-07-27T22:24:16.216Z,99219.18
2022-07-27T22:29:20.064Z,99225.77
2022-07-27T22:34:23.994Z,99229.45
2022-07-27T22:39:27.915Z,99233.48
2022-07-27T22:44:31.977Z,99240.13
2022-07-27T22:49:36.414Z,99235.19
2022-07-27T22:54:41.828Z,99241.03
2022-07-27T22:59:45.644Z,99244.15
2022-07-27T23:04:49.557Z,99250.94
2022-07-27T23:09:53.146Z,99255.15
2022-07-27T23:15:00.694Z,99254.39
2022-07-27T23:20:05.557Z,99260.77
2022-07-27T23:25:11.860Z,99265.19
2022-07-27T23:30:18.673Z,99261.70
2022-07-27T23:35:22.873Z,99257.19
2022-07-27T23:40:27.018Z,99257.02
2022-07-27T23:45:31.009Z,99265.96
2022-07-27T23:50:36.159Z,99267.40
2022-07-27T23:55:41.709Z,99266.64
